sensor_id;sensor_type;location;lat;lon;timestamp;P1;durP1;ratioP1;P2;durP2;ratioP2
14619;SDS011;32125;48.518;9.050;2023-06-14T00:02:29;6.57;;;4.60;;
14619;SDS011;32125;48.518;9.050;2023-06-14T00:04:55;6.07;;;4.50;;
14619;SDS011;32125;48.518;9.050;2023-06-14T00:07:22;5.77;;;4.60;;
14619;SDS011;32125;48.518;9.050;2023-06-14T00:10:05;5.90;;;5.00;;
14619;SDS011;32125;48.518;9.050;2023-06-14T00:12:31;7.43;;;4.60;;
14619;SDS011;32125;48.518;9.050;2023-06-14T00:15:00;5.53;;;4.50;;
14619;SDS011;32125;48.518;9.050;2023-06-14T00:17:26;6.07;;;4.50;;
14619;SDS011;32125;48.518;9.050;2023-06-14T00:19:55;4.50;;;4.10;;
14619;SDS011;32125;48.518;9.050;2023-06-14T00:22:22;4.93;;;4.30;;
14619;SDS011;32125;48.518;9.050;2023-06-14T00:24:49;5.00;;;4.50;;
14619;SDS011;32125;48.518;9.050;2023-06-14T00:27:15;6.33;;;4.63;;
14619;SDS011;32125;48.518;9.050;2023-06-14T00:29:44;7.17;;;4.77;;
14619;SDS011;32125;48.518;9.050;2023-06-14T00:32:10;5.90;;;4.53;;
14619;SDS011;32125;48.518;9.050;2023-06-14T00:34:39;5.00;;;4.60;;
14619;SDS011;32125;48.518;9.050;2023-06-14T00:37:05;6.93;;;4.67;;
14619;SDS011;32125;48.518;9.050;2023-06-14T00:39:33;5.97;;;4.50;;
14619;SDS011;32125;48.518;9.050;2023-06-14T00:41:59;5.70;;;4.47;;
14619;SDS011;32125;48.518;9.050;2023-06-14T00:44:27;5.23;;;4.73;;
14619;SDS011;32125;48.518;9.050;2023-06-14T00:46:53;5.73;;;5.13;;
14619;SDS011;32125;48.518;9.050;2023-06-14T00:49:22;5.40;;;4.90;;
14619;SDS011;32125;48.518;9.050;2023-06-14T00:51:50;6.03;;;4.97;;
14619;SDS011;32125;48.518;9.050;2023-06-14T00:54:16;7.90;;;4.87;;
14619;SDS011;32125;48.518;9.050;2023-06-14T00:56:42;5.73;;;5.10;;
14619;SDS011;32125;48.518;9.050;2023-06-14T00:59:09;7.47;;;5.00;;
14619;SDS011;32125;48.518;9.050;2023-06-14T01:01:36;5.70;;;5.20;;
14619;SDS011;32125;48.518;9.050;2023-06-14T01:04:03;6.77;;;5.03;;
14619;SDS011;32125;48.518;9.050;2023-06-14T01:09:14;6.03;;;4.73;;
14619;SDS011;32125;48.518;9.050;2023-06-14T01:11:50;5.70;;;5.10;;
14619;SDS011;32125;48.518;9.050;2023-06-14T01:14:24;7.00;;;5.17;;
14619;SDS011;32125;48.518;9.050;2023-06-14T01:16:52;6.50;;;5.30;;
14619;SDS011;32125;48.518;9.050;2023-06-14T01:19:20;5.20;;;4.70;;
14619;SDS011;32125;48.518;9.050;2023-06-14T01:21:47;7.23;;;5.30;;
14619;SDS011;32125;48.518;9.050;2023-06-14T01:24:16;6.57;;;5.27;;
14619;SDS011;32125;48.518;9.050;2023-06-14T01:26:44;6.57;;;4.97;;
14619;SDS011;32125;48.518;9.050;2023-06-14T01:29:16;6.70;;;5.07;;
14619;SDS011;32125;48.518;9.050;2023-06-14T01:31:44;6.50;;;5.10;;
14619;SDS011;32125;48.518;9.050;2023-06-14T01:34:14;7.57;;;5.13;;
14619;SDS011;32125;48.518;9.050;2023-06-14T01:36:40;7.20;;;5.13;;
14619;SDS011;32125;48.518;9.050;2023-06-14T01:39:08;8.90;;;5.40;;
14619;SDS011;32125;48.518;9.050;2023-06-14T01:41:36;7.27;;;5.40;;
14619;SDS011;32125;48.518;9.050;2023-06-14T01:44:02;7.50;;;5.47;;
14619;SDS011;32125;48.518;9.050;2023-06-14T01:46:29;6.47;;;5.07;;
14619;SDS011;32125;48.518;9.050;2023-06-14T01:48:55;8.53;;;5.73;;
14619;SDS011;32125;48.518;9.050;2023-06-14T01:51:21;6.37;;;5.40;;
14619;SDS011;32125;48.518;9.050;2023-06-14T01:53:47;5.63;;;5.03;;
14619;SDS011;32125;48.518;9.050;2023-06-14T01:56:15;7.27;;;5.10;;
14619;SDS011;32125;48.518;9.050;2023-06-14T01:58:44;5.40;;;4.90;;
14619;SDS011;32125;48.518;9.050;2023-06-14T02:01:10;6.63;;;5.00;;
14619;SDS011;32125;48.518;9.050;2023-06-14T02:03:41;6.37;;;4.63;;
14619;SDS011;32125;48.518;9.050;2023-06-14T02:06:07;6.37;;;4.93;;
14619;SDS011;32125;48.518;9.050;2023-06-14T02:08:33;6.33;;;5.17;;
14619;SDS011;32125;48.518;9.050;2023-06-14T02:11:01;7.50;;;5.20;;
14619;SDS011;32125;48.518;9.050;2023-06-14T02:13:27;6.03;;;5.43;;
14619;SDS011;32125;48.518;9.050;2023-06-14T02:15:53;8.30;;;5.60;;
14619;SDS011;32125;48.518;9.050;2023-06-14T02:18:24;5.90;;;5.30;;
14619;SDS011;32125;48.518;9.050;2023-06-14T02:20:51;5.80;;;5.20;;
14619;SDS011;32125;48.518;9.050;2023-06-14T02:23:17;6.60;;;5.50;;
14619;SDS011;32125;48.518;9.050;2023-06-14T02:25:43;6.50;;;5.80;;
14619;SDS011;32125;48.518;9.050;2023-06-14T02:28:10;5.97;;;5.33;;
14619;SDS011;32125;48.518;9.050;2023-06-14T02:30:37;9.83;;;5.67;;
14619;SDS011;32125;48.518;9.050;2023-06-14T02:33:03;5.83;;;5.23;;
14619;SDS011;32125;48.518;9.050;2023-06-14T02:35:32;6.63;;;5.57;;
14619;SDS011;32125;48.518;9.050;2023-06-14T02:37:58;5.93;;;5.33;;
14619;SDS011;32125;48.518;9.050;2023-06-14T02:40:26;7.33;;;5.43;;
14619;SDS011;32125;48.518;9.050;2023-06-14T02:42:52;6.30;;;5.43;;
14619;SDS011;32125;48.518;9.050;2023-06-14T02:45:21;6.33;;;5.00;;
14619;SDS011;32125;48.518;9.050;2023-06-14T02:47:50;5.30;;;4.80;;
14619;SDS011;32125;48.518;9.050;2023-06-14T02:50:16;6.43;;;5.33;;
14619;SDS011;32125;48.518;9.050;2023-06-14T02:52:42;8.70;;;5.33;;
14619;SDS011;32125;48.518;9.050;2023-06-14T02:55:09;6.57;;;5.50;;
14619;SDS011;32125;48.518;9.050;2023-06-14T02:57:35;6.37;;;5.20;;
14619;SDS011;32125;48.518;9.050;2023-06-14T03:00:02;6.30;;;5.67;;
14619;SDS011;32125;48.518;9.050;2023-06-14T03:02:28;8.33;;;5.70;;
14619;SDS011;32125;48.518;9.050;2023-06-14T03:04:53;6.60;;;5.60;;
14619;SDS011;32125;48.518;9.050;2023-06-14T03:07:20;6.53;;;4.70;;
14619;SDS011;32125;48.518;9.050;2023-06-14T03:09:50;7.13;;;5.70;;
14619;SDS011;32125;48.518;9.050;2023-06-14T03:12:16;6.63;;;5.30;;
14619;SDS011;32125;48.518;9.050;2023-06-14T03:14:42;6.00;;;5.23;;
14619;SDS011;32125;48.518;9.050;2023-06-14T03:17:11;5.83;;;5.23;;
14619;SDS011;32125;48.518;9.050;2023-06-14T03:19:40;6.63;;;5.77;;
14619;SDS011;32125;48.518;9.050;2023-06-14T03:22:06;5.67;;;5.17;;
14619;SDS011;32125;48.518;9.050;2023-06-14T03:24:36;6.70;;;5.80;;
14619;SDS011;32125;48.518;9.050;2023-06-14T03:27:03;6.40;;;5.67;;
14619;SDS011;32125;48.518;9.050;2023-06-14T03:29:31;6.10;;;5.50;;
14619;SDS011;32125;48.518;9.050;2023-06-14T03:31:58;7.77;;;6.07;;
14619;SDS011;32125;48.518;9.050;2023-06-14T03:34:29;6.17;;;5.57;;
14619;SDS011;32125;48.518;9.050;2023-06-14T03:36:55;7.93;;;6.00;;
14619;SDS011;32125;48.518;9.050;2023-06-14T03:39:21;6.63;;;5.30;;
14619;SDS011;32125;48.518;9.050;2023-06-14T03:41:48;6.33;;;5.63;;
14619;SDS011;32125;48.518;9.050;2023-06-14T03:44:15;6.23;;;5.37;;
14619;SDS011;32125;48.518;9.050;2023-06-14T03:46:43;6.67;;;5.90;;
14619;SDS011;32125;48.518;9.050;2023-06-14T03:49:10;6.27;;;5.67;;
14619;SDS011;32125;48.518;9.050;2023-06-14T03:51:36;6.70;;;5.80;;
14619;SDS011;32125;48.518;9.050;2023-06-14T03:54:02;7.83;;;5.47;;
14619;SDS011;32125;48.518;9.050;2023-06-14T03:56:30;6.53;;;5.47;;
14619;SDS011;32125;48.518;9.050;2023-06-14T03:58:56;7.80;;;5.77;;
14619;SDS011;32125;48.518;9.050;2023-06-14T04:01:24;6.17;;;5.57;;
14619;SDS011;32125;48.518;9.050;2023-06-14T04:03:54;6.80;;;6.10;;
14619;SDS011;32125;48.518;9.050;2023-06-14T04:06:22;6.10;;;5.47;;
14619;SDS011;32125;48.518;9.050;2023-06-14T04:08:56;6.93;;;6.10;;
14619;SDS011;32125;48.518;9.050;2023-06-14T04:11:24;7.00;;;5.53;;
14619;SDS011;32125;48.518;9.050;2023-06-14T04:13:51;9.70;;;6.30;;
14619;SDS011;32125;48.518;9.050;2023-06-14T04:16:18;6.83;;;6.13;;
14619;SDS011;32125;48.518;9.050;2023-06-14T04:18:44;9.20;;;6.17;;
14619;SDS011;32125;48.518;9.050;2023-06-14T04:21:11;6.83;;;5.73;;
14619;SDS011;32125;48.518;9.050;2023-06-14T04:23:37;8.60;;;5.90;;
14619;SDS011;32125;48.518;9.050;2023-06-14T04:26:03;7.77;;;5.50;;
14619;SDS011;32125;48.518;9.050;2023-06-14T04:28:31;6.20;;;5.53;;
14619;SDS011;32125;48.518;9.050;2023-06-14T04:31:02;6.73;;;5.90;;
14619;SDS011;32125;48.518;9.050;2023-06-14T04:33:28;9.33;;;5.90;;
14619;SDS011;32125;48.518;9.050;2023-06-14T04:35:53;7.73;;;5.90;;
14619;SDS011;32125;48.518;9.050;2023-06-14T04:38:24;7.93;;;6.67;;
14619;SDS011;32125;48.518;9.050;2023-06-14T04:40:50;6.57;;;5.90;;
14619;SDS011;32125;48.518;9.050;2023-06-14T04:43:17;8.63;;;6.00;;
14619;SDS011;32125;48.518;9.050;2023-06-14T04:45:43;8.97;;;6.60;;
14619;SDS011;32125;48.518;9.050;2023-06-14T04:48:12;8.23;;;6.10;;
14619;SDS011;32125;48.518;9.050;2023-06-14T04:50:40;14.13;;;6.97;;
14619;SDS011;32125;48.518;9.050;2023-06-14T04:53:10;17.57;;;6.30;;
14619;SDS011;32125;48.518;9.050;2023-06-14T04:55:36;6.90;;;6.20;;
14619;SDS011;32125;48.518;9.050;2023-06-14T04:58:02;7.30;;;5.67;;
14619;SDS011;32125;48.518;9.050;2023-06-14T05:00:30;6.70;;;6.00;;
14619;SDS011;32125;48.518;9.050;2023-06-14T05:02:59;6.80;;;6.20;;
14619;SDS011;32125;48.518;9.050;2023-06-14T05:05:26;9.80;;;6.60;;
14619;SDS011;32125;48.518;9.050;2023-06-14T05:07:51;6.90;;;5.97;;
14619;SDS011;32125;48.518;9.050;2023-06-14T05:10:20;13.53;;;6.43;;
14619;SDS011;32125;48.518;9.050;2023-06-14T05:12:46;8.03;;;6.20;;
14619;SDS011;32125;48.518;9.050;2023-06-14T05:15:13;8.40;;;6.10;;
14619;SDS011;32125;48.518;9.050;2023-06-14T05:17:40;9.70;;;6.10;;
14619;SDS011;32125;48.518;9.050;2023-06-14T05:20:06;9.57;;;6.23;;
14619;SDS011;32125;48.518;9.050;2023-06-14T05:22:35;10.63;;;6.20;;
14619;SDS011;32125;48.518;9.050;2023-06-14T05:25:01;9.10;;;5.73;;
14619;SDS011;32125;48.518;9.050;2023-06-14T05:27:27;9.87;;;5.93;;
14619;SDS011;32125;48.518;9.050;2023-06-14T05:29:53;9.87;;;6.60;;
14619;SDS011;32125;48.518;9.050;2023-06-14T05:32:23;6.50;;;5.77;;
14619;SDS011;32125;48.518;9.050;2023-06-14T05:34:49;7.73;;;6.17;;
14619;SDS011;32125;48.518;9.050;2023-06-14T05:37:15;8.93;;;6.43;;
14619;SDS011;32125;48.518;9.050;2023-06-14T05:39:42;6.60;;;5.90;;
14619;SDS011;32125;48.518;9.050;2023-06-14T05:42:10;6.43;;;5.43;;
14619;SDS011;32125;48.518;9.050;2023-06-14T05:44:37;7.17;;;5.83;;
14619;SDS011;32125;48.518;9.050;2023-06-14T05:47:03;9.47;;;6.03;;
14619;SDS011;32125;48.518;9.050;2023-06-14T05:49:29;8.70;;;6.43;;
14619;SDS011;32125;48.518;9.050;2023-06-14T05:51:56;7.20;;;6.40;;
14619;SDS011;32125;48.518;9.050;2023-06-14T05:54:24;7.67;;;5.87;;
14619;SDS011;32125;48.518;9.050;2023-06-14T05:56:52;6.37;;;5.77;;
14619;SDS011;32125;48.518;9.050;2023-06-14T05:59:21;10.53;;;6.10;;
14619;SDS011;32125;48.518;9.050;2023-06-14T06:01:50;8.47;;;6.10;;
14619;SDS011;32125;48.518;9.050;2023-06-14T06:04:16;9.93;;;6.40;;
14619;SDS011;32125;48.518;9.050;2023-06-14T06:06:42;8.77;;;6.37;;
14619;SDS011;32125;48.518;9.050;2023-06-14T06:09:08;9.07;;;6.10;;
14619;SDS011;32125;48.518;9.050;2023-06-14T06:11:34;6.93;;;5.90;;
14619;SDS011;32125;48.518;9.050;2023-06-14T06:14:02;6.70;;;5.77;;
14619;SDS011;32125;48.518;9.050;2023-06-14T06:16:28;8.20;;;6.10;;
14619;SDS011;32125;48.518;9.050;2023-06-14T06:18:54;10.40;;;6.37;;
14619;SDS011;32125;48.518;9.050;2023-06-14T06:21:22;9.47;;;6.30;;
14619;SDS011;32125;48.518;9.050;2023-06-14T06:23:48;6.87;;;6.13;;
14619;SDS011;32125;48.518;9.050;2023-06-14T06:26:17;6.27;;;5.63;;
14619;SDS011;32125;48.518;9.050;2023-06-14T06:28:46;14.00;;;6.00;;
14619;SDS011;32125;48.518;9.050;2023-06-14T06:31:13;16.80;;;11.57;;
14619;SDS011;32125;48.518;9.050;2023-06-14T06:33:39;6.83;;;5.57;;
14619;SDS011;32125;48.518;9.050;2023-06-14T06:36:05;11.80;;;5.27;;
14619;SDS011;32125;48.518;9.050;2023-06-14T06:38:31;8.83;;;5.73;;
14619;SDS011;32125;48.518;9.050;2023-06-14T06:40:57;5.90;;;5.22;;
14619;SDS011;32125;48.518;9.050;2023-06-14T06:43:23;8.57;;;5.20;;
14619;SDS011;32125;48.518;9.050;2023-06-14T06:45:49;8.35;;;4.85;;
14619;SDS011;32125;48.518;9.050;2023-06-14T06:48:15;5.95;;;5.00;;
14619;SDS011;32125;48.518;9.050;2023-06-14T06:50:41;9.43;;;5.03;;
14619;SDS011;32125;48.518;9.050;2023-06-14T06:53:07;8.75;;;5.07;;
14619;SDS011;32125;48.518;9.050;2023-06-14T06:55:33;8.80;;;5.60;;
14619;SDS011;32125;48.518;9.050;2023-06-14T06:57:59;7.00;;;5.00;;
14619;SDS011;32125;48.518;9.050;2023-06-14T07:00:29;8.95;;;5.20;;
14619;SDS011;32125;48.518;9.050;2023-06-14T07:02:55;9.27;;;5.07;;
14619;SDS011;32125;48.518;9.050;2023-06-14T07:05:22;6.75;;;5.10;;
14619;SDS011;32125;48.518;9.050;2023-06-14T07:07:48;7.28;;;4.70;;
14619;SDS011;32125;48.518;9.050;2023-06-14T07:10:14;6.47;;;4.75;;
14619;SDS011;32125;48.518;9.050;2023-06-14T07:12:42;6.28;;;4.53;;
14619;SDS011;32125;48.518;9.050;2023-06-14T07:15:11;5.18;;;4.68;;
14619;SDS011;32125;48.518;9.050;2023-06-14T07:17:37;4.88;;;4.43;;
14619;SDS011;32125;48.518;9.050;2023-06-14T07:20:03;5.30;;;4.80;;
14619;SDS011;32125;48.518;9.050;2023-06-14T07:22:33;6.30;;;4.60;;
14619;SDS011;32125;48.518;9.050;2023-06-14T07:24:59;8.10;;;4.45;;
14619;SDS011;32125;48.518;9.050;2023-06-14T07:27:24;11.13;;;4.63;;
14619;SDS011;32125;48.518;9.050;2023-06-14T07:29:53;9.82;;;4.30;;
14619;SDS011;32125;48.518;9.050;2023-06-14T07:32:21;6.80;;;4.25;;
14619;SDS011;32125;48.518;9.050;2023-06-14T07:34:50;6.32;;;4.05;;
14619;SDS011;32125;48.518;9.050;2023-06-14T07:37:19;8.93;;;4.50;;
14619;SDS011;32125;48.518;9.050;2023-06-14T07:39:45;7.68;;;4.07;;
14619;SDS011;32125;48.518;9.050;2023-06-14T07:42:13;6.15;;;4.32;;
14619;SDS011;32125;48.518;9.050;2023-06-14T07:44:40;5.57;;;4.00;;
14619;SDS011;32125;48.518;9.050;2023-06-14T07:47:08;4.35;;;3.65;;
14619;SDS011;32125;48.518;9.050;2023-06-14T07:49:34;5.65;;;3.80;;
14619;SDS011;32125;48.518;9.050;2023-06-14T07:52:02;7.40;;;4.57;;
14619;SDS011;32125;48.518;9.050;2023-06-14T07:54:30;6.90;;;4.00;;
14619;SDS011;32125;48.518;9.050;2023-06-14T07:56:57;7.15;;;4.15;;
14619;SDS011;32125;48.518;9.050;2023-06-14T07:59:28;6.72;;;3.80;;
14619;SDS011;32125;48.518;9.050;2023-06-14T08:01:54;10.80;;;4.53;;
14619;SDS011;32125;48.518;9.050;2023-06-14T08:04:20;6.00;;;3.85;;
14619;SDS011;32125;48.518;9.050;2023-06-14T08:06:46;6.75;;;4.00;;
14619;SDS011;32125;48.518;9.050;2023-06-14T08:09:13;5.45;;;3.90;;
14619;SDS011;32125;48.518;9.050;2023-06-14T08:11:39;7.05;;;4.03;;
14619;SDS011;32125;48.518;9.050;2023-06-14T08:14:05;7.28;;;4.03;;
14619;SDS011;32125;48.518;9.050;2023-06-14T08:16:31;6.70;;;4.00;;
14619;SDS011;32125;48.518;9.050;2023-06-14T08:18:59;4.30;;;3.78;;
14619;SDS011;32125;48.518;9.050;2023-06-14T08:21:26;5.68;;;3.90;;
14619;SDS011;32125;48.518;9.050;2023-06-14T08:23:54;5.25;;;3.50;;
14619;SDS011;32125;48.518;9.050;2023-06-14T08:26:20;6.75;;;3.53;;
14619;SDS011;32125;48.518;9.050;2023-06-14T08:28:53;4.22;;;3.80;;
14619;SDS011;32125;48.518;9.050;2023-06-14T08:31:22;6.07;;;3.70;;
14619;SDS011;32125;48.518;9.050;2023-06-14T08:33:48;5.47;;;3.20;;
14619;SDS011;32125;48.518;9.050;2023-06-14T08:36:14;7.38;;;3.40;;
14619;SDS011;32125;48.518;9.050;2023-06-14T08:38:41;5.65;;;3.05;;
14619;SDS011;32125;48.518;9.050;2023-06-14T08:41:07;7.28;;;3.22;;
14619;SDS011;32125;48.518;9.050;2023-06-14T08:43:33;6.25;;;3.15;;
14619;SDS011;32125;48.518;9.050;2023-06-14T08:46:03;5.20;;;3.22;;
14619;SDS011;32125;48.518;9.050;2023-06-14T08:48:29;4.03;;;2.95;;
14619;SDS011;32125;48.518;9.050;2023-06-14T08:50:59;7.70;;;3.05;;
14619;SDS011;32125;48.518;9.050;2023-06-14T08:53:32;4.50;;;3.15;;
14619;SDS011;32125;48.518;9.050;2023-06-14T08:56:01;3.72;;;3.17;;
14619;SDS011;32125;48.518;9.050;2023-06-14T08:58:30;6.45;;;2.92;;
14619;SDS011;32125;48.518;9.050;2023-06-14T09:00:59;5.32;;;3.20;;
14619;SDS011;32125;48.518;9.050;2023-06-14T09:03:26;3.83;;;3.15;;
14619;SDS011;32125;48.518;9.050;2023-06-14T09:05:58;5.20;;;3.20;;
14619;SDS011;32125;48.518;9.050;2023-06-14T09:08:26;7.55;;;3.47;;
14619;SDS011;32125;48.518;9.050;2023-06-14T09:10:55;15.07;;;3.55;;
14619;SDS011;32125;48.518;9.050;2023-06-14T09:13:22;3.55;;;3.15;;
14619;SDS011;32125;48.518;9.050;2023-06-14T09:15:51;4.85;;;3.30;;
14619;SDS011;32125;48.518;9.050;2023-06-14T09:18:22;6.32;;;3.22;;
14619;SDS011;32125;48.518;9.050;2023-06-14T09:21:04;5.13;;;3.13;;
14619;SDS011;32125;48.518;9.050;2023-06-14T09:23:33;10.25;;;3.42;;
14619;SDS011;32125;48.518;9.050;2023-06-14T09:25:59;8.50;;;3.50;;
14619;SDS011;32125;48.518;9.050;2023-06-14T09:28:28;4.90;;;3.00;;
14619;SDS011;32125;48.518;9.050;2023-06-14T09:30:54;6.35;;;3.28;;
14619;SDS011;32125;48.518;9.050;2023-06-14T09:33:23;5.07;;;3.05;;
14619;SDS011;32125;48.518;9.050;2023-06-14T09:35:52;6.05;;;3.13;;
14619;SDS011;32125;48.518;9.050;2023-06-14T09:38:18;12.63;;;3.65;;
14619;SDS011;32125;48.518;9.050;2023-06-14T09:40:44;8.77;;;3.60;;
14619;SDS011;32125;48.518;9.050;2023-06-14T09:43:10;5.85;;;3.38;;
14619;SDS011;32125;48.518;9.050;2023-06-14T09:45:36;4.95;;;3.33;;
14619;SDS011;32125;48.518;9.050;2023-06-14T09:48:05;5.35;;;3.38;;
14619;SDS011;32125;48.518;9.050;2023-06-14T09:50:32;4.47;;;3.10;;
14619;SDS011;32125;48.518;9.050;2023-06-14T09:52:59;5.53;;;3.45;;
14619;SDS011;32125;48.518;9.050;2023-06-14T09:55:30;6.93;;;3.20;;
14619;SDS011;32125;48.518;9.050;2023-06-14T09:57:56;3.95;;;3.15;;
14619;SDS011;32125;48.518;9.050;2023-06-14T10:00:22;5.57;;;3.40;;
14619;SDS011;32125;48.518;9.050;2023-06-14T10:02:49;5.75;;;3.05;;
14619;SDS011;32125;48.518;9.050;2023-06-14T10:05:22;6.18;;;3.42;;
14619;SDS011;32125;48.518;9.050;2023-06-14T10:07:53;7.68;;;3.28;;
14619;SDS011;32125;48.518;9.050;2023-06-14T10:10:21;4.45;;;3.20;;
14619;SDS011;32125;48.518;9.050;2023-06-14T10:12:47;11.73;;;3.72;;
14619;SDS011;32125;48.518;9.050;2023-06-14T10:15:16;4.90;;;3.47;;
14619;SDS011;32125;48.518;9.050;2023-06-14T10:17:56;5.80;;;3.30;;
14619;SDS011;32125;48.518;9.050;2023-06-14T10:20:33;6.57;;;3.08;;
14619;SDS011;32125;48.518;9.050;2023-06-14T10:23:19;6.32;;;3.05;;
14619;SDS011;32125;48.518;9.050;2023-06-14T10:25:50;4.10;;;3.03;;
14619;SDS011;32125;48.518;9.050;2023-06-14T10:28:21;3.90;;;2.97;;
14619;SDS011;32125;48.518;9.050;2023-06-14T10:31:02;3.95;;;3.30;;
14619;SDS011;32125;48.518;9.050;2023-06-14T10:33:36;3.95;;;3.13;;
14619;SDS011;32125;48.518;9.050;2023-06-14T10:36:09;4.32;;;3.30;;
14619;SDS011;32125;48.518;9.050;2023-06-14T10:38:36;3.75;;;3.10;;
14619;SDS011;32125;48.518;9.050;2023-06-14T10:41:03;3.83;;;3.20;;
14619;SDS011;32125;48.518;9.050;2023-06-14T10:43:30;3.53;;;3.10;;
14619;SDS011;32125;48.518;9.050;2023-06-14T10:46:15;5.68;;;3.45;;
14619;SDS011;32125;48.518;9.050;2023-06-14T10:48:45;3.88;;;2.90;;
14619;SDS011;32125;48.518;9.050;2023-06-14T10:51:18;4.25;;;3.00;;
14619;SDS011;32125;48.518;9.050;2023-06-14T10:53:45;5.32;;;3.22;;
14619;SDS011;32125;48.518;9.050;2023-06-14T10:58:58;4.43;;;2.90;;
14619;SDS011;32125;48.518;9.050;2023-06-14T11:01:36;4.55;;;2.75;;
14619;SDS011;32125;48.518;9.050;2023-06-14T11:04:12;6.93;;;2.85;;
14619;SDS011;32125;48.518;9.050;2023-06-14T11:06:47;7.97;;;2.90;;
14619;SDS011;32125;48.518;9.050;2023-06-14T11:09:27;5.05;;;3.28;;
14619;SDS011;32125;48.518;9.050;2023-06-14T11:12:09;3.40;;;3.10;;
14619;SDS011;32125;48.518;9.050;2023-06-14T11:14:38;5.35;;;3.20;;
14619;SDS011;32125;48.518;9.050;2023-06-14T11:17:05;7.68;;;3.38;;
14619;SDS011;32125;48.518;9.050;2023-06-14T11:19:31;4.40;;;3.00;;
14619;SDS011;32125;48.518;9.050;2023-06-14T11:21:57;5.18;;;3.13;;
14619;SDS011;32125;48.518;9.050;2023-06-14T11:24:23;3.95;;;2.97;;
14619;SDS011;32125;48.518;9.050;2023-06-14T11:26:49;5.20;;;3.00;;
14619;SDS011;32125;48.518;9.050;2023-06-14T11:29:15;5.07;;;3.30;;
14619;SDS011;32125;48.518;9.050;2023-06-14T11:31:44;5.32;;;3.20;;
14619;SDS011;32125;48.518;9.050;2023-06-14T11:34:11;5.35;;;3.08;;
14619;SDS011;32125;48.518;9.050;2023-06-14T11:36:39;5.10;;;3.13;;
14619;SDS011;32125;48.518;9.050;2023-06-14T11:39:06;4.65;;;3.10;;
14619;SDS011;32125;48.518;9.050;2023-06-14T11:41:37;3.60;;;3.30;;
14619;SDS011;32125;48.518;9.050;2023-06-14T11:44:03;4.13;;;3.03;;
14619;SDS011;32125;48.518;9.050;2023-06-14T11:46:32;5.97;;;3.00;;
14619;SDS011;32125;48.518;9.050;2023-06-14T11:48:58;4.15;;;3.15;;
14619;SDS011;32125;48.518;9.050;2023-06-14T11:51:27;3.90;;;3.35;;
14619;SDS011;32125;48.518;9.050;2023-06-14T11:53:53;4.93;;;3.38;;
14619;SDS011;32125;48.518;9.050;2023-06-14T11:56:20;3.45;;;2.83;;
14619;SDS011;32125;48.518;9.050;2023-06-14T11:58:46;5.38;;;2.83;;
14619;SDS011;32125;48.518;9.050;2023-06-14T12:01:17;4.00;;;3.00;;
14619;SDS011;32125;48.518;9.050;2023-06-14T12:03:50;6.20;;;3.30;;
14619;SDS011;32125;48.518;9.050;2023-06-14T12:06:25;3.90;;;3.05;;
14619;SDS011;32125;48.518;9.050;2023-06-14T12:08:57;3.45;;;3.08;;
14619;SDS011;32125;48.518;9.050;2023-06-14T12:11:24;6.95;;;3.15;;
14619;SDS011;32125;48.518;9.050;2023-06-14T12:13:53;4.65;;;3.05;;
14619;SDS011;32125;48.518;9.050;2023-06-14T12:16:19;5.18;;;3.58;;
14619;SDS011;32125;48.518;9.050;2023-06-14T12:18:46;9.25;;;3.60;;
14619;SDS011;32125;48.518;9.050;2023-06-14T12:21:12;6.65;;;3.30;;
14619;SDS011;32125;48.518;9.050;2023-06-14T12:23:45;7.13;;;3.40;;
14619;SDS011;32125;48.518;9.050;2023-06-14T12:26:14;6.93;;;3.33;;
14619;SDS011;32125;48.518;9.050;2023-06-14T12:28:41;5.28;;;3.80;;
14619;SDS011;32125;48.518;9.050;2023-06-14T12:31:13;3.83;;;3.42;;
14619;SDS011;32125;48.518;9.050;2023-06-14T12:33:41;7.22;;;3.70;;
14619;SDS011;32125;48.518;9.050;2023-06-14T12:36:08;4.50;;;3.40;;
14619;SDS011;32125;48.518;9.050;2023-06-14T12:38:35;5.55;;;3.80;;
14619;SDS011;32125;48.518;9.050;2023-06-14T12:41:01;5.50;;;3.85;;
14619;SDS011;32125;48.518;9.050;2023-06-14T12:43:27;6.50;;;3.50;;
14619;SDS011;32125;48.518;9.050;2023-06-14T12:45:53;9.57;;;3.83;;
14619;SDS011;32125;48.518;9.050;2023-06-14T12:48:19;7.72;;;3.70;;
14619;SDS011;32125;48.518;9.050;2023-06-14T12:50:46;8.18;;;3.90;;
14619;SDS011;32125;48.518;9.050;2023-06-14T12:53:12;12.05;;;3.78;;
14619;SDS011;32125;48.518;9.050;2023-06-14T12:55:38;6.85;;;3.70;;
14619;SDS011;32125;48.518;9.050;2023-06-14T12:58:04;4.05;;;3.70;;
14619;SDS011;32125;48.518;9.050;2023-06-14T13:00:30;6.72;;;3.67;;
14619;SDS011;32125;48.518;9.050;2023-06-14T13:02:56;3.97;;;3.60;;
14619;SDS011;32125;48.518;9.050;2023-06-14T13:05:22;15.60;;;4.18;;
14619;SDS011;32125;48.518;9.050;2023-06-14T13:07:48;4.25;;;3.65;;
14619;SDS011;32125;48.518;9.050;2023-06-14T13:10:15;5.18;;;3.65;;
14619;SDS011;32125;48.518;9.050;2023-06-14T13:12:42;15.98;;;4.18;;
14619;SDS011;32125;48.518;9.050;2023-06-14T13:15:08;5.07;;;3.83;;
14619;SDS011;32125;48.518;9.050;2023-06-14T13:17:34;4.05;;;3.75;;
14619;SDS011;32125;48.518;9.050;2023-06-14T13:20:06;4.57;;;3.65;;
14619;SDS011;32125;48.518;9.050;2023-06-14T13:22:33;4.70;;;3.58;;
14619;SDS011;32125;48.518;9.050;2023-06-14T13:24:59;6.28;;;4.03;;
14619;SDS011;32125;48.518;9.050;2023-06-14T13:27:26;10.95;;;4.07;;
14619;SDS011;32125;48.518;9.050;2023-06-14T13:29:54;5.22;;;4.05;;
14619;SDS011;32125;48.518;9.050;2023-06-14T13:32:20;5.80;;;4.40;;
14619;SDS011;32125;48.518;9.050;2023-06-14T13:34:47;4.40;;;4.00;;
14619;SDS011;32125;48.518;9.050;2023-06-14T13:37:13;6.10;;;4.00;;
14619;SDS011;32125;48.518;9.050;2023-06-14T13:39:41;4.40;;;4.00;;
14619;SDS011;32125;48.518;9.050;2023-06-14T13:42:07;5.68;;;4.25;;
14619;SDS011;32125;48.518;9.050;2023-06-14T13:44:33;4.93;;;3.90;;
14619;SDS011;32125;48.518;9.050;2023-06-14T13:46:59;4.63;;;3.75;;
14619;SDS011;32125;48.518;9.050;2023-06-14T13:49:27;10.85;;;4.40;;
14619;SDS011;32125;48.518;9.050;2023-06-14T13:51:53;5.90;;;3.75;;
14619;SDS011;32125;48.518;9.050;2023-06-14T13:54:19;4.95;;;3.53;;
14619;SDS011;32125;48.518;9.050;2023-06-14T13:56:46;6.57;;;3.60;;
14619;SDS011;32125;48.518;9.050;2023-06-14T13:59:14;5.63;;;3.75;;
14619;SDS011;32125;48.518;9.050;2023-06-14T14:01:41;8.07;;;3.95;;
14619;SDS011;32125;48.518;9.050;2023-06-14T14:04:07;7.45;;;3.88;;
14619;SDS011;32125;48.518;9.050;2023-06-14T14:06:33;5.40;;;3.80;;
14619;SDS011;32125;48.518;9.050;2023-06-14T14:09:02;5.15;;;3.58;;
14619;SDS011;32125;48.518;9.050;2023-06-14T14:11:31;5.95;;;3.80;;
14619;SDS011;32125;48.518;9.050;2023-06-14T14:13:59;6.97;;;3.70;;
14619;SDS011;32125;48.518;9.050;2023-06-14T14:16:26;7.32;;;3.83;;
14619;SDS011;32125;48.518;9.050;2023-06-14T14:18:52;7.18;;;3.63;;
14619;SDS011;32125;48.518;9.050;2023-06-14T14:21:21;4.07;;;3.72;;
14619;SDS011;32125;48.518;9.050;2023-06-14T14:23:49;5.93;;;3.67;;
14619;SDS011;32125;48.518;9.050;2023-06-14T14:26:16;7.25;;;3.70;;
14619;SDS011;32125;48.518;9.050;2023-06-14T14:28:42;6.90;;;3.70;;
14619;SDS011;32125;48.518;9.050;2023-06-14T14:40:21;7.05;;;3.90;;
14619;SDS011;32125;48.518;9.050;2023-06-14T14:42:47;6.47;;;3.88;;
14619;SDS011;32125;48.518;9.050;2023-06-14T14:45:13;7.57;;;3.85;;
14619;SDS011;32125;48.518;9.050;2023-06-14T14:47:39;4.88;;;3.75;;
14619;SDS011;32125;48.518;9.050;2023-06-14T14:50:07;4.03;;;3.50;;
14619;SDS011;32125;48.518;9.050;2023-06-14T14:52:34;6.78;;;3.90;;
14619;SDS011;32125;48.518;9.050;2023-06-14T14:55:00;4.03;;;3.63;;
14619;SDS011;32125;48.518;9.050;2023-06-14T14:57:27;5.75;;;3.88;;
14619;SDS011;32125;48.518;9.050;2023-06-14T14:59:55;5.07;;;3.95;;
14619;SDS011;32125;48.518;9.050;2023-06-14T15:02:21;6.78;;;3.78;;
14619;SDS011;32125;48.518;9.050;2023-06-14T15:04:48;6.63;;;4.00;;
14619;SDS011;32125;48.518;9.050;2023-06-14T15:07:14;3.70;;;3.40;;